sensor_id;sensor_type;location;lat;lon;timestamp;P1;durP1;ratioP1;P2;durP2;ratioP2
69989;SDS011;57331;52.054;5.294;2022-07-21T00:02:00;14.45;;;8.48;;
69989;SDS011;57331;52.054;5.294;2022-07-21T00:04:27;14.20;;;8.30;;
69989;SDS011;57331;52.054;5.294;2022-07-21T00:06:54;16.43;;;8.43;;
69989;SDS011;57331;52.054;5.294;2022-07-21T00:09:21;13.73;;;7.95;;
69989;SDS011;57331;52.054;5.294;2022-07-21T00:11:48;11.82;;;6.68;;
69989;SDS011;57331;52.054;5.294;2022-07-21T00:14:15;12.02;;;6.78;;
69989;SDS011;57331;52.054;5.294;2022-07-21T00:16:42;12.48;;;7.03;;
69989;SDS011;57331;52.054;5.294;2022-07-21T00:19:10;12.53;;;7.37;;
69989;SDS011;57331;52.054;5.294;2022-07-21T00:21:37;12.27;;;7.55;;
69989;SDS011;57331;52.054;5.294;2022-07-21T00:24:04;11.80;;;7.63;;
69989;SDS011;57331;52.054;5.294;2022-07-21T00:26:31;11.73;;;7.10;;
69989;SDS011;57331;52.054;5.294;2022-07-21T00:28:58;12.40;;;7.53;;
69989;SDS011;57331;52.054;5.294;2022-07-21T00:31:26;11.40;;;6.23;;
69989;SDS011;57331;52.054;5.294;2022-07-21T00:33:53;13.85;;;6.68;;
69989;SDS011;57331;52.054;5.294;2022-07-21T00:36:20;14.23;;;7.15;;
69989;SDS011;57331;52.054;5.294;2022-07-21T00:38:47;12.32;;;6.88;;
69989;SDS011;57331;52.054;5.294;2022-07-21T00:41:14;12.43;;;6.55;;
69989;SDS011;57331;52.054;5.294;2022-07-21T00:43:41;12.73;;;6.63;;
69989;SDS011;57331;52.054;5.294;2022-07-21T00:46:08;11.95;;;6.07;;
69989;SDS011;57331;52.054;5.294;2022-07-21T00:48:35;9.80;;;6.10;;
69989;SDS011;57331;52.054;5.294;2022-07-21T00:51:02;11.27;;;6.32;;
69989;SDS011;57331;52.054;5.294;2022-07-21T00:53:29;10.27;;;6.00;;
69989;SDS011;57331;52.054;5.294;2022-07-21T00:55:56;10.37;;;6.00;;
69989;SDS011;57331;52.054;5.294;2022-07-21T00:58:25;11.55;;;5.93;;
69989;SDS011;57331;52.054;5.294;2022-07-21T01:00:52;9.68;;;5.88;;
69989;SDS011;57331;52.054;5.294;2022-07-21T01:03:19;10.95;;;6.07;;
69989;SDS011;57331;52.054;5.294;2022-07-21T01:05:46;10.57;;;5.93;;
69989;SDS011;57331;52.054;5.294;2022-07-21T01:08:13;12.10;;;6.20;;
69989;SDS011;57331;52.054;5.294;2022-07-21T01:10:41;11.05;;;5.95;;
69989;SDS011;57331;52.054;5.294;2022-07-21T01:13:07;10.00;;;5.97;;
69989;SDS011;57331;52.054;5.294;2022-07-21T01:15:35;9.73;;;5.40;;
69989;SDS011;57331;52.054;5.294;2022-07-21T01:18:02;11.73;;;5.82;;
69989;SDS011;57331;52.054;5.294;2022-07-21T01:20:31;10.77;;;5.97;;
69989;SDS011;57331;52.054;5.294;2022-07-21T01:23:01;11.82;;;5.68;;
69989;SDS011;57331;52.054;5.294;2022-07-21T01:25:29;11.38;;;6.55;;
69989;SDS011;57331;52.054;5.294;2022-07-21T01:27:56;11.38;;;5.85;;
69989;SDS011;57331;52.054;5.294;2022-07-21T01:30:23;12.90;;;6.20;;
69989;SDS011;57331;52.054;5.294;2022-07-21T01:32:50;10.70;;;6.33;;
69989;SDS011;57331;52.054;5.294;2022-07-21T01:35:17;13.27;;;5.90;;
69989;SDS011;57331;52.054;5.294;2022-07-21T01:37:45;11.50;;;6.05;;
69989;SDS011;57331;52.054;5.294;2022-07-21T01:40:13;11.73;;;6.75;;
69989;SDS011;57331;52.054;5.294;2022-07-21T01:42:59;10.63;;;6.13;;
69989;SDS011;57331;52.054;5.294;2022-07-21T01:45:26;9.90;;;6.00;;
69989;SDS011;57331;52.054;5.294;2022-07-21T01:47:54;11.70;;;6.25;;
69989;SDS011;57331;52.054;5.294;2022-07-21T01:50:21;13.57;;;7.43;;
69989;SDS011;57331;52.054;5.294;2022-07-21T01:52:56;13.27;;;7.38;;
69989;SDS011;57331;52.054;5.294;2022-07-21T01:55:24;12.38;;;6.78;;
69989;SDS011;57331;52.054;5.294;2022-07-21T01:57:52;13.67;;;6.80;;
69989;SDS011;57331;52.054;5.294;2022-07-21T02:00:19;12.98;;;6.82;;
69989;SDS011;57331;52.054;5.294;2022-07-21T02:02:46;14.10;;;8.05;;
69989;SDS011;57331;52.054;5.294;2022-07-21T02:05:13;12.95;;;7.75;;
69989;SDS011;57331;52.054;5.294;2022-07-21T02:07:40;10.98;;;6.15;;
69989;SDS011;57331;52.054;5.294;2022-07-21T02:10:07;15.47;;;8.57;;
69989;SDS011;57331;52.054;5.294;2022-07-21T02:12:34;14.23;;;7.80;;
69989;SDS011;57331;52.054;5.294;2022-07-21T02:15:02;12.10;;;7.20;;
69989;SDS011;57331;52.054;5.294;2022-07-21T02:17:29;14.95;;;7.30;;
69989;SDS011;57331;52.054;5.294;2022-07-21T02:19:56;13.23;;;7.20;;
69989;SDS011;57331;52.054;5.294;2022-07-21T02:22:23;14.00;;;7.87;;
69989;SDS011;57331;52.054;5.294;2022-07-21T02:24:49;13.98;;;8.23;;
69989;SDS011;57331;52.054;5.294;2022-07-21T02:27:16;15.38;;;7.88;;
69989;SDS011;57331;52.054;5.294;2022-07-21T02:29:44;12.02;;;7.25;;
69989;SDS011;57331;52.054;5.294;2022-07-21T02:32:11;12.65;;;7.50;;
69989;SDS011;57331;52.054;5.294;2022-07-21T02:34:38;16.63;;;8.70;;
69989;SDS011;57331;52.054;5.294;2022-07-21T02:37:05;15.13;;;9.45;;
69989;SDS011;57331;52.054;5.294;2022-07-21T02:39:31;11.73;;;7.03;;
69989;SDS011;57331;52.054;5.294;2022-07-21T02:41:59;13.98;;;7.88;;
69989;SDS011;57331;52.054;5.294;2022-07-21T02:44:25;17.30;;;9.32;;
69989;SDS011;57331;52.054;5.294;2022-07-21T02:46:52;14.23;;;8.10;;
69989;SDS011;57331;52.054;5.294;2022-07-21T02:49:19;15.82;;;9.30;;
69989;SDS011;57331;52.054;5.294;2022-07-21T02:51:46;17.80;;;10.45;;
69989;SDS011;57331;52.054;5.294;2022-07-21T02:54:14;17.88;;;10.18;;
69989;SDS011;57331;52.054;5.294;2022-07-21T02:56:40;19.75;;;11.15;;
69989;SDS011;57331;52.054;5.294;2022-07-21T02:59:07;21.23;;;10.93;;
69989;SDS011;57331;52.054;5.294;2022-07-21T03:01:34;20.75;;;11.70;;
69989;SDS011;57331;52.054;5.294;2022-07-21T03:04:01;18.42;;;11.13;;
69989;SDS011;57331;52.054;5.294;2022-07-21T03:06:28;18.73;;;10.50;;
69989;SDS011;57331;52.054;5.294;2022-07-21T03:08:55;22.73;;;12.35;;
69989;SDS011;57331;52.054;5.294;2022-07-21T03:11:22;24.30;;;12.77;;
69989;SDS011;57331;52.054;5.294;2022-07-21T03:13:50;23.40;;;13.13;;
69989;SDS011;57331;52.054;5.294;2022-07-21T03:16:17;19.02;;;11.27;;
69989;SDS011;57331;52.054;5.294;2022-07-21T03:18:44;18.90;;;10.38;;
69989;SDS011;57331;52.054;5.294;2022-07-21T03:21:11;20.05;;;11.77;;
69989;SDS011;57331;52.054;5.294;2022-07-21T03:23:38;21.83;;;13.07;;
69989;SDS011;57331;52.054;5.294;2022-07-21T03:26:06;24.63;;;13.10;;
69989;SDS011;57331;52.054;5.294;2022-07-21T03:28:33;21.20;;;12.38;;
69989;SDS011;57331;52.054;5.294;2022-07-21T03:31:00;21.02;;;12.82;;
69989;SDS011;57331;52.054;5.294;2022-07-21T03:33:27;21.65;;;12.77;;
69989;SDS011;57331;52.054;5.294;2022-07-21T03:35:54;22.57;;;13.57;;
69989;SDS011;57331;52.054;5.294;2022-07-21T03:38:24;24.55;;;14.45;;
69989;SDS011;57331;52.054;5.294;2022-07-21T03:40:51;25.95;;;15.65;;
69989;SDS011;57331;52.054;5.294;2022-07-21T03:43:18;25.38;;;14.95;;
69989;SDS011;57331;52.054;5.294;2022-07-21T03:45:45;26.63;;;14.55;;
69989;SDS011;57331;52.054;5.294;2022-07-21T03:48:12;24.50;;;14.90;;
69989;SDS011;57331;52.054;5.294;2022-07-21T03:50:40;24.90;;;15.23;;
69989;SDS011;57331;52.054;5.294;2022-07-21T03:53:08;26.40;;;14.35;;
69989;SDS011;57331;52.054;5.294;2022-07-21T03:55:36;25.67;;;14.73;;
69989;SDS011;57331;52.054;5.294;2022-07-21T03:58:04;23.20;;;14.18;;
69989;SDS011;57331;52.054;5.294;2022-07-21T04:00:38;27.13;;;14.97;;
69989;SDS011;57331;52.054;5.294;2022-07-21T04:03:07;27.73;;;14.70;;
69989;SDS011;57331;52.054;5.294;2022-07-21T04:05:35;28.02;;;15.35;;
69989;SDS011;57331;52.054;5.294;2022-07-21T04:08:03;22.00;;;12.32;;
69989;SDS011;57331;52.054;5.294;2022-07-21T04:10:32;30.85;;;16.30;;
69989;SDS011;57331;52.054;5.294;2022-07-21T04:13:01;24.80;;;14.47;;
69989;SDS011;57331;52.054;5.294;2022-07-21T04:15:29;26.50;;;14.82;;
69989;SDS011;57331;52.054;5.294;2022-07-21T04:17:57;28.80;;;16.73;;
69989;SDS011;57331;52.054;5.294;2022-07-21T04:20:24;25.35;;;13.80;;
69989;SDS011;57331;52.054;5.294;2022-07-21T04:22:51;30.83;;;16.23;;
69989;SDS011;57331;52.054;5.294;2022-07-21T04:25:18;28.83;;;16.53;;
69989;SDS011;57331;52.054;5.294;2022-07-21T04:27:46;27.88;;;15.13;;
69989;SDS011;57331;52.054;5.294;2022-07-21T04:30:15;27.23;;;14.63;;
69989;SDS011;57331;52.054;5.294;2022-07-21T04:32:44;30.92;;;16.25;;
69989;SDS011;57331;52.054;5.294;2022-07-21T04:35:11;25.33;;;14.88;;
69989;SDS011;57331;52.054;5.294;2022-07-21T04:37:39;28.17;;;15.60;;
69989;SDS011;57331;52.054;5.294;2022-07-21T04:40:06;28.98;;;15.73;;
69989;SDS011;57331;52.054;5.294;2022-07-21T04:42:35;27.33;;;16.02;;
69989;SDS011;57331;52.054;5.294;2022-07-21T04:45:05;28.65;;;15.88;;
69989;SDS011;57331;52.054;5.294;2022-07-21T04:48:08;29.25;;;16.38;;
69989;SDS011;57331;52.054;5.294;2022-07-21T04:50:27;33.67;;;16.73;;
69989;SDS011;57331;52.054;5.294;2022-07-21T04:52:55;26.30;;;15.43;;
69989;SDS011;57331;52.054;5.294;2022-07-21T04:55:22;28.98;;;17.27;;
69989;SDS011;57331;52.054;5.294;2022-07-21T04:57:50;32.08;;;16.77;;
69989;SDS011;57331;52.054;5.294;2022-07-21T05:00:19;29.65;;;16.83;;
69989;SDS011;57331;52.054;5.294;2022-07-21T05:02:48;26.93;;;15.87;;
69989;SDS011;57331;52.054;5.294;2022-07-21T05:05:15;31.98;;;16.88;;
69989;SDS011;57331;52.054;5.294;2022-07-21T05:07:42;32.22;;;17.00;;
69989;SDS011;57331;52.054;5.294;2022-07-21T05:10:11;28.75;;;16.55;;
69989;SDS011;57331;52.054;5.294;2022-07-21T05:12:39;32.33;;;17.73;;
69989;SDS011;57331;52.054;5.294;2022-07-21T05:15:07;29.17;;;16.60;;
69989;SDS011;57331;52.054;5.294;2022-07-21T05:17:35;31.48;;;16.95;;
69989;SDS011;57331;52.054;5.294;2022-07-21T05:20:03;31.10;;;17.05;;
69989;SDS011;57331;52.054;5.294;2022-07-21T05:22:31;28.52;;;15.35;;
69989;SDS011;57331;52.054;5.294;2022-07-21T05:24:58;37.78;;;17.92;;
69989;SDS011;57331;52.054;5.294;2022-07-21T05:27:25;34.17;;;16.87;;
69989;SDS011;57331;52.054;5.294;2022-07-21T05:29:51;29.02;;;16.08;;
69989;SDS011;57331;52.054;5.294;2022-07-21T05:32:19;32.90;;;17.08;;
69989;SDS011;57331;52.054;5.294;2022-07-21T05:34:45;30.85;;;16.98;;
69989;SDS011;57331;52.054;5.294;2022-07-21T05:37:12;34.78;;;17.15;;
69989;SDS011;57331;52.054;5.294;2022-07-21T05:39:39;30.33;;;16.47;;
69989;SDS011;57331;52.054;5.294;2022-07-21T05:42:06;29.90;;;16.27;;
69989;SDS011;57331;52.054;5.294;2022-07-21T05:44:33;30.58;;;16.63;;
69989;SDS011;57331;52.054;5.294;2022-07-21T05:47:00;29.20;;;15.38;;
69989;SDS011;57331;52.054;5.294;2022-07-21T05:49:27;29.63;;;15.52;;
69989;SDS011;57331;52.054;5.294;2022-07-21T05:51:54;36.47;;;16.90;;
69989;SDS011;57331;52.054;5.294;2022-07-21T05:54:21;32.05;;;15.73;;
69989;SDS011;57331;52.054;5.294;2022-07-21T05:56:48;29.02;;;14.43;;
69989;SDS011;57331;52.054;5.294;2022-07-21T05:59:15;29.75;;;15.57;;
69989;SDS011;57331;52.054;5.294;2022-07-21T06:01:42;29.27;;;15.27;;
69989;SDS011;57331;52.054;5.294;2022-07-21T06:04:10;26.33;;;14.73;;
69989;SDS011;57331;52.054;5.294;2022-07-21T06:06:37;28.85;;;15.38;;
69989;SDS011;57331;52.054;5.294;2022-07-21T06:09:04;30.30;;;16.05;;
69989;SDS011;57331;52.054;5.294;2022-07-21T06:11:30;30.60;;;15.13;;
69989;SDS011;57331;52.054;5.294;2022-07-21T06:14:02;27.83;;;14.43;;
69989;SDS011;57331;52.054;5.294;2022-07-21T06:16:30;31.33;;;14.63;;
69989;SDS011;57331;52.054;5.294;2022-07-21T06:18:58;28.77;;;13.55;;
69989;SDS011;57331;52.054;5.294;2022-07-21T06:21:27;27.45;;;14.70;;
69989;SDS011;57331;52.054;5.294;2022-07-21T06:23:55;26.17;;;13.30;;
69989;SDS011;57331;52.054;5.294;2022-07-21T06:26:24;22.55;;;12.80;;
69989;SDS011;57331;52.054;5.294;2022-07-21T06:28:51;32.73;;;14.60;;
69989;SDS011;57331;52.054;5.294;2022-07-21T06:31:18;28.85;;;15.45;;
69989;SDS011;57331;52.054;5.294;2022-07-21T06:33:45;32.50;;;15.85;;
69989;SDS011;57331;52.054;5.294;2022-07-21T06:36:11;35.45;;;16.20;;
69989;SDS011;57331;52.054;5.294;2022-07-21T06:38:39;37.65;;;16.15;;
69989;SDS011;57331;52.054;5.294;2022-07-21T06:41:06;29.53;;;15.07;;
69989;SDS011;57331;52.054;5.294;2022-07-21T06:43:33;32.75;;;16.10;;
69989;SDS011;57331;52.054;5.294;2022-07-21T06:46:00;35.20;;;16.90;;
69989;SDS011;57331;52.054;5.294;2022-07-21T06:48:28;36.33;;;16.80;;
69989;SDS011;57331;52.054;5.294;2022-07-21T06:50:55;34.28;;;15.77;;
69989;SDS011;57331;52.054;5.294;2022-07-21T06:53:23;39.93;;;16.33;;
69989;SDS011;57331;52.054;5.294;2022-07-21T06:55:51;34.63;;;16.13;;
69989;SDS011;57331;52.054;5.294;2022-07-21T06:58:27;38.20;;;17.50;;
69989;SDS011;57331;52.054;5.294;2022-07-21T07:00:57;33.15;;;15.95;;
69989;SDS011;57331;52.054;5.294;2022-07-21T07:03:24;43.58;;;18.52;;
69989;SDS011;57331;52.054;5.294;2022-07-21T07:05:52;44.60;;;20.40;;
69989;SDS011;57331;52.054;5.294;2022-07-21T07:08:19;45.03;;;19.10;;
69989;SDS011;57331;52.054;5.294;2022-07-21T07:10:46;44.03;;;19.33;;
69989;SDS011;57331;52.054;5.294;2022-07-21T07:13:13;39.90;;;18.77;;
69989;SDS011;57331;52.054;5.294;2022-07-21T07:16:01;42.13;;;20.60;;
69989;SDS011;57331;52.054;5.294;2022-07-21T07:18:28;45.40;;;19.33;;
69989;SDS011;57331;52.054;5.294;2022-07-21T07:20:55;45.90;;;19.90;;
69989;SDS011;57331;52.054;5.294;2022-07-21T07:23:22;48.78;;;20.27;;
69989;SDS011;57331;52.054;5.294;2022-07-21T07:25:49;53.65;;;21.85;;
69989;SDS011;57331;52.054;5.294;2022-07-21T07:28:16;45.65;;;20.27;;
69989;SDS011;57331;52.054;5.294;2022-07-21T07:30:43;46.13;;;20.47;;
69989;SDS011;57331;52.054;5.294;2022-07-21T07:33:10;51.05;;;21.13;;
69989;SDS011;57331;52.054;5.294;2022-07-21T07:35:37;49.22;;;20.60;;
69989;SDS011;57331;52.054;5.294;2022-07-21T07:38:04;46.97;;;20.60;;
69989;SDS011;57331;52.054;5.294;2022-07-21T07:40:32;36.38;;;16.92;;
69989;SDS011;57331;52.054;5.294;2022-07-21T07:42:59;43.63;;;19.70;;
69989;SDS011;57331;52.054;5.294;2022-07-21T07:45:34;51.00;;;19.67;;
69989;SDS011;57331;52.054;5.294;2022-07-21T07:48:04;47.00;;;20.65;;
69989;SDS011;57331;52.054;5.294;2022-07-21T07:50:31;45.17;;;19.98;;
69989;SDS011;57331;52.054;5.294;2022-07-21T07:53:04;45.72;;;20.98;;
69989;SDS011;57331;52.054;5.294;2022-07-21T07:55:31;44.43;;;20.37;;
69989;SDS011;57331;52.054;5.294;2022-07-21T07:57:58;42.60;;;19.23;;
69989;SDS011;57331;52.054;5.294;2022-07-21T08:00:25;43.65;;;19.20;;
69989;SDS011;57331;52.054;5.294;2022-07-21T08:03:12;44.97;;;19.70;;
69989;SDS011;57331;52.054;5.294;2022-07-21T08:05:39;44.47;;;20.48;;
69989;SDS011;57331;52.054;5.294;2022-07-21T08:08:06;45.10;;;18.27;;
69989;SDS011;57331;52.054;5.294;2022-07-21T08:10:33;50.17;;;21.67;;
69989;SDS011;57331;52.054;5.294;2022-07-21T08:13:10;52.20;;;22.15;;
69989;SDS011;57331;52.054;5.294;2022-07-21T08:15:43;48.45;;;21.00;;
69989;SDS011;57331;52.054;5.294;2022-07-21T08:18:11;48.30;;;21.45;;
69989;SDS011;57331;52.054;5.294;2022-07-21T08:20:39;50.57;;;20.97;;
69989;SDS011;57331;52.054;5.294;2022-07-21T08:23:06;43.20;;;19.58;;
69989;SDS011;57331;52.054;5.294;2022-07-21T08:25:33;48.10;;;21.45;;
69989;SDS011;57331;52.054;5.294;2022-07-21T08:28:01;48.30;;;20.45;;
69989;SDS011;57331;52.054;5.294;2022-07-21T08:30:28;50.75;;;21.80;;
69989;SDS011;57331;52.054;5.294;2022-07-21T08:32:57;46.40;;;20.80;;
69989;SDS011;57331;52.054;5.294;2022-07-21T08:35:26;48.28;;;21.50;;
69989;SDS011;57331;52.054;5.294;2022-07-21T08:37:57;43.28;;;18.40;;
69989;SDS011;57331;52.054;5.294;2022-07-21T08:40:26;47.15;;;20.23;;
69989;SDS011;57331;52.054;5.294;2022-07-21T08:42:55;45.95;;;20.55;;
69989;SDS011;57331;52.054;5.294;2022-07-21T08:45:22;42.80;;;20.40;;
69989;SDS011;57331;52.054;5.294;2022-07-21T08:47:51;48.28;;;21.45;;
69989;SDS011;57331;52.054;5.294;2022-07-21T08:50:19;42.72;;;18.67;;
69989;SDS011;57331;52.054;5.294;2022-07-21T08:52:46;41.63;;;19.38;;
69989;SDS011;57331;52.054;5.294;2022-07-21T08:55:13;47.13;;;19.83;;
69989;SDS011;57331;52.054;5.294;2022-07-21T08:57:41;46.03;;;19.67;;
69989;SDS011;57331;52.054;5.294;2022-07-21T09:00:13;39.80;;;18.92;;
69989;SDS011;57331;52.054;5.294;2022-07-21T09:02:40;36.75;;;17.30;;
69989;SDS011;57331;52.054;5.294;2022-07-21T09:05:07;29.13;;;15.10;;
69989;SDS011;57331;52.054;5.294;2022-07-21T09:07:54;23.27;;;13.00;;
69989;SDS011;57331;52.054;5.294;2022-07-21T09:10:24;25.10;;;12.37;;
69989;SDS011;57331;52.054;5.294;2022-07-21T09:12:56;18.98;;;10.70;;
69989;SDS011;57331;52.054;5.294;2022-07-21T09:15:26;18.08;;;10.05;;
69989;SDS011;57331;52.054;5.294;2022-07-21T09:18:08;17.83;;;9.07;;
69989;SDS011;57331;52.054;5.294;2022-07-21T09:20:50;14.23;;;7.82;;
69989;SDS011;57331;52.054;5.294;2022-07-21T09:23:21;15.27;;;7.33;;
69989;SDS011;57331;52.054;5.294;2022-07-21T09:25:50;15.52;;;7.40;;
69989;SDS011;57331;52.054;5.294;2022-07-21T09:28:19;18.23;;;8.80;;
69989;SDS011;57331;52.054;5.294;2022-07-21T09:30:56;14.25;;;7.50;;
69989;SDS011;57331;52.054;5.294;2022-07-21T09:33:27;15.95;;;7.60;;
69989;SDS011;57331;52.054;5.294;2022-07-21T09:36:01;14.30;;;7.23;;
69989;SDS011;57331;52.054;5.294;2022-07-21T09:38:29;11.80;;;6.63;;
69989;SDS011;57331;52.054;5.294;2022-07-21T09:41:08;10.35;;;5.65;;
69989;SDS011;57331;52.054;5.294;2022-07-21T09:43:42;9.30;;;5.30;;
69989;SDS011;57331;52.054;5.294;2022-07-21T09:48:38;12.87;;;5.33;;
69989;SDS011;57331;52.054;5.294;2022-07-21T09:51:20;8.57;;;4.68;;
69989;SDS011;57331;52.054;5.294;2022-07-21T09:53:54;10.10;;;5.43;;
69989;SDS011;57331;52.054;5.294;2022-07-21T09:56:23;9.52;;;5.93;;
69989;SDS011;57331;52.054;5.294;2022-07-21T09:58:52;10.20;;;6.03;;
69989;SDS011;57331;52.054;5.294;2022-07-21T10:01:21;13.23;;;7.27;;
69989;SDS011;57331;52.054;5.294;2022-07-21T10:03:49;11.48;;;6.53;;
69989;SDS011;57331;52.054;5.294;2022-07-21T10:06:18;15.73;;;7.60;;
69989;SDS011;57331;52.054;5.294;2022-07-21T10:08:46;12.93;;;7.60;;
69989;SDS011;57331;52.054;5.294;2022-07-21T10:11:14;19.38;;;10.45;;
69989;SDS011;57331;52.054;5.294;2022-07-21T10:13:44;13.57;;;7.87;;
69989;SDS011;57331;52.054;5.294;2022-07-21T10:16:14;20.13;;;9.35;;
69989;SDS011;57331;52.054;5.294;2022-07-21T10:24:08;13.13;;;8.10;;
69989;SDS011;57331;52.054;5.294;2022-07-21T10:26:38;13.83;;;7.87;;
69989;SDS011;57331;52.054;5.294;2022-07-21T10:32:14;15.40;;;8.80;;
69989;SDS011;57331;52.054;5.294;2022-07-21T10:34:42;15.27;;;7.53;;
69989;SDS011;57331;52.054;5.294;2022-07-21T10:37:10;12.65;;;7.35;;
69989;SDS011;57331;52.054;5.294;2022-07-21T10:39:37;13.87;;;7.20;;
69989;SDS011;57331;52.054;5.294;2022-07-21T10:42:15;13.30;;;7.93;;
69989;SDS011;57331;52.054;5.294;2022-07-21T10:44:43;15.48;;;8.00;;
69989;SDS011;57331;52.054;5.294;2022-07-21T10:47:13;16.05;;;8.05;;
69989;SDS011;57331;52.054;5.294;2022-07-21T10:49:45;16.23;;;8.57;;
69989;SDS011;57331;52.054;5.294;2022-07-21T11:02:55;17.25;;;9.00;;
69989;SDS011;57331;52.054;5.294;2022-07-21T11:05:22;16.37;;;8.70;;
69989;SDS011;57331;52.054;5.294;2022-07-21T11:10:38;17.98;;;8.90;;
69989;SDS011;57331;52.054;5.294;2022-07-21T11:13:07;20.85;;;9.23;;
69989;SDS011;57331;52.054;5.294;2022-07-21T11:18:16;18.63;;;8.83;;
69989;SDS011;57331;52.054;5.294;2022-07-21T11:21:04;17.73;;;8.40;;
69989;SDS011;57331;52.054;5.294;2022-07-21T11:23:38;16.40;;;8.25;;
69989;SDS011;57331;52.054;5.294;2022-07-21T11:26:05;14.85;;;7.82;;
69989;SDS011;57331;52.054;5.294;2022-07-21T11:28:32;17.55;;;8.85;;
69989;SDS011;57331;52.054;5.294;2022-07-21T11:33:56;17.25;;;8.43;;
69989;SDS011;57331;52.054;5.294;2022-07-21T11:36:29;16.60;;;8.60;;
69989;SDS011;57331;52.054;5.294;2022-07-21T11:38:58;16.60;;;8.50;;
69989;SDS011;57331;52.054;5.294;2022-07-21T11:41:30;14.98;;;8.02;;
69989;SDS011;57331;52.054;5.294;2022-07-21T11:43:58;14.33;;;8.20;;
69989;SDS011;57331;52.054;5.294;2022-07-21T11:46:25;14.73;;;8.43;;
69989;SDS011;57331;52.054;5.294;2022-07-21T11:49:03;13.05;;;7.28;;
69989;SDS011;57331;52.054;5.294;2022-07-21T11:51:31;13.10;;;6.97;;
69989;SDS011;57331;52.054;5.294;2022-07-21T11:53:58;13.85;;;7.00;;
69989;SDS011;57331;52.054;5.294;2022-07-21T11:56:25;11.97;;;6.30;;
69989;SDS011;57331;52.054;5.294;2022-07-21T11:59:07;11.85;;;6.85;;
69989;SDS011;57331;52.054;5.294;2022-07-21T12:01:47;11.48;;;6.32;;
69989;SDS011;57331;52.054;5.294;2022-07-21T12:04:25;13.68;;;6.50;;
69989;SDS011;57331;52.054;5.294;2022-07-21T12:06:56;11.38;;;7.10;;
69989;SDS011;57331;52.054;5.294;2022-07-21T12:09:23;14.33;;;7.43;;
69989;SDS011;57331;52.054;5.294;2022-07-21T12:11:51;11.55;;;7.28;;
69989;SDS011;57331;52.054;5.294;2022-07-21T12:14:18;11.32;;;6.50;;
69989;SDS011;57331;52.054;5.294;2022-07-21T12:16:52;10.15;;;5.97;;
69989;SDS011;57331;52.054;5.294;2022-07-21T12:19:20;12.00;;;6.47;;
69989;SDS011;57331;52.054;5.294;2022-07-21T12:21:49;10.47;;;5.90;;
69989;SDS011;57331;52.054;5.294;2022-07-21T12:24:17;10.10;;;5.13;;
69989;SDS011;57331;52.054;5.294;2022-07-21T12:26:45;8.88;;;5.05;;
69989;SDS011;57331;52.054;5.294;2022-07-21T12:29:26;8.40;;;4.50;;
69989;SDS011;57331;52.054;5.294;2022-07-21T12:31:54;8.80;;;4.60;;
69989;SDS011;57331;52.054;5.294;2022-07-21T12:34:22;7.83;;;4.60;;
69989;SDS011;57331;52.054;5.294;2022-07-21T12:36:53;7.82;;;4.45;;
69989;SDS011;57331;52.054;5.294;2022-07-21T12:42:07;7.93;;;4.00;;
69989;SDS011;57331;52.054;5.294;2022-07-21T12:44:35;11.45;;;4.82;;
69989;SDS011;57331;52.054;5.294;2022-07-21T12:47:13;8.27;;;4.60;;
69989;SDS011;57331;52.054;5.294;2022-07-21T12:49:58;6.53;;;3.60;;
69989;SDS011;57331;52.054;5.294;2022-07-21T12:52:45;8.43;;;3.78;;
69989;SDS011;57331;52.054;5.294;2022-07-21T12:55:13;5.60;;;3.00;;
69989;SDS011;57331;52.054;5.294;2022-07-21T12:57:39;7.63;;;3.58;;
69989;SDS011;57331;52.054;5.294;2022-07-21T13:00:07;9.17;;;4.20;;
69989;SDS011;57331;52.054;5.294;2022-07-21T13:02:47;10.32;;;3.60;;
69989;SDS011;57331;52.054;5.294;2022-07-21T13:05:16;11.45;;;4.15;;
69989;SDS011;57331;52.054;5.294;2022-07-21T13:07:43;6.22;;;3.55;;
69989;SDS011;57331;52.054;5.294;2022-07-21T13:10:11;7.57;;;3.55;;
69989;SDS011;57331;52.054;5.294;2022-07-21T13:12:38;9.87;;;3.33;;
69989;SDS011;57331;52.054;5.294;2022-07-21T13:15:06;7.93;;;3.10;;
69989;SDS011;57331;52.054;5.294;2022-07-21T13:17:34;6.55;;;3.17;;
69989;SDS011;57331;52.054;5.294;2022-07-21T13:20:01;6.72;;;2.75;;
69989;SDS011;57331;52.054;5.294;2022-07-21T13:22:33;8.93;;;3.38;;
69989;SDS011;57331;52.054;5.294;2022-07-21T13:25:00;7.33;;;3.10;;
69989;SDS011;57331;52.054;5.294;2022-07-21T13:27:28;6.50;;;3.25;;
69989;SDS011;57331;52.054;5.294;2022-07-21T13:29:55;7.15;;;3.03;;
69989;SDS011;57331;52.054;5.294;2022-07-21T13:32:22;7.32;;;3.03;;
69989;SDS011;57331;52.054;5.294;2022-07-21T13:34:49;8.18;;;3.30;;
69989;SDS011;57331;52.054;5.294;2022-07-21T13:37:36;6.70;;;3.10;;
69989;SDS011;57331;52.054;5.294;2022-07-21T13:40:04;5.70;;;3.00;;
69989;SDS011;57331;52.054;5.294;2022-07-21T13:42:52;8.75;;;3.50;;
69989;SDS011;57331;52.054;5.294;2022-07-21T13:45:39;6.43;;;2.72;;
69989;SDS011;57331;52.054;5.294;2022-07-21T13:48:06;8.38;;;3.10;;
69989;SDS011;57331;52.054;5.294;2022-07-21T13:50:33;6.37;;;2.73;;
69989;SDS011;57331;52.054;5.294;2022-07-21T13:53:00;10.57;;;3.10;;
69989;SDS011;57331;52.054;5.294;2022-07-21T13:55:27;6.82;;;2.88;;
69989;SDS011;57331;52.054;5.294;2022-07-21T13:57:53;6.57;;;3.17;;
69989;SDS011;57331;52.054;5.294;2022-07-21T14:00:21;6.22;;;3.15;;
69989;SDS011;57331;52.054;5.294;2022-07-21T14:02:48;5.37;;;2.93;;
69989;SDS011;57331;52.054;5.294;2022-07-21T14:05:15;7.60;;;3.13;;
69989;SDS011;57331;52.054;5.294;2022-07-21T14:07:42;12.93;;;3.60;;
69989;SDS011;57331;52.054;5.294;2022-07-21T14:10:09;9.20;;;3.80;;
69989;SDS011;57331;52.054;5.294;2022-07-21T14:12:36;10.15;;;4.35;;
69989;SDS011;57331;52.054;5.294;2022-07-21T14:15:08;6.23;;;3.30;;
69989;SDS011;57331;52.054;5.294;2022-07-21T14:17:36;6.22;;;3.58;;
69989;SDS011;57331;52.054;5.294;2022-07-21T14:20:03;8.07;;;3.97;;
69989;SDS011;57331;52.054;5.294;2022-07-21T14:22:30;8.70;;;3.75;;
69989;SDS011;57331;52.054;5.294;2022-07-21T14:24:57;7.55;;;4.03;;
69989;SDS011;57331;52.054;5.294;2022-07-21T14:27:43;7.90;;;4.50;;
69989;SDS011;57331;52.054;5.294;2022-07-21T14:30:13;9.55;;;4.95;;
69989;SDS011;57331;52.054;5.294;2022-07-21T14:32:40;9.85;;;5.05;;
69989;SDS011;57331;52.054;5.294;2022-07-21T14:35:07;12.68;;;5.47;;
69989;SDS011;57331;52.054;5.294;2022-07-21T14:37:35;11.35;;;4.85;;
69989;SDS011;57331;52.054;5.294;2022-07-21T14:40:03;11.77;;;5.20;;
69989;SDS011;57331;52.054;5.294;2022-07-21T14:42:31;11.75;;;6.60;;
69989;SDS011;57331;52.054;5.294;2022-07-21T14:44:58;11.25;;;6.65;;
69989;SDS011;57331;52.054;5.294;2022-07-21T14:47:25;14.02;;;7.45;;
69989;SDS011;57331;52.054;5.294;2022-07-21T14:49:52;13.95;;;7.07;;
69989;SDS011;57331;52.054;5.294;2022-07-21T14:52:19;10.10;;;6.47;;
69989;SDS011;57331;52.054;5.294;2022-07-21T14:54:46;11.30;;;6.95;;
69989;SDS011;57331;52.054;5.294;2022-07-21T14:57:13;11.88;;;7.53;;
69989;SDS011;57331;52.054;5.294;2022-07-21T14:59:40;12.70;;;8.52;;
69989;SDS011;57331;52.054;5.294;2022-07-21T15:02:07;13.23;;;8.90;;
69989;SDS011;57331;52.054;5.294;2022-07-21T15:04:40;14.03;;;9.30;;
69989;SDS011;57331;52.054;5.294;2022-07-21T15:07:08;13.18;;;9.55;;
69989;SDS011;57331;52.054;5.294;2022-07-21T15:09:35;15.43;;;9.05;;
69989;SDS011;57331;52.054;5.294;2022-07-21T15:12:02;16.38;;;9.88;;
69989;SDS011;57331;52.054;5.294;2022-07-21T15:14:29;11.95;;;7.80;;